Charlottesville Albemarle Airport Charlottesville US
ICAO: KCHO
IATA: CHO
Category: Medium
Scheduled Services: Yes

Elevation: 639 ft
TransAlt. 18000 ft.

Airport Communications:
POTOMAC APP/DEP:132.85
ASOS:118.425
ATIS:118.425
CTAF:124.5
GND:121.9
LEESBURG RDO:122.2
TWR:124.5
UNICOM:122.95

KCHO Zoom In..

Runways:

(A) RW 03 length 6801 ft width 150 ft
ILS 111.70 / hdg 30

(B) RW 21 length 6801 ft width 150 ft
---- / hdg 210

Location; KCHO
Day. 07 / Time. 14.53 Zulu
* Altimeter: 30.12
* Temperature: 24° c. 75.2°f.
* Wind from: 060° Speed 05 kn.
Dewpoint: 20° c.
Visibility: 10 Statute Miles.
Clouds: Overcast 1300 ft.

KCHO 071453Z 06005KT 10SM OVC013 24/20 A3012 RMK AO2 SLP193 T02390200 50002

Going to: --> -->


Wind From 060°
Speed 05 kn.

 
 
jpsmedia worldairports.se 2020   terms of use